createdAt,value
2019-04-24T00:02:15.050Z,99.90
2019-04-24T00:05:10.454Z,99.90
2019-04-24T00:07:34.851Z,99.90
2019-04-24T00:09:49.329Z,99.90
2019-04-24T00:12:43.231Z,99.90
2019-04-24T00:21:20.066Z,99.90
2019-04-24T00:23:42.439Z,99.90
2019-04-24T00:26:07.920Z,99.90
2019-04-24T00:28:50.411Z,99.90
2019-04-24T00:31:17.663Z,99.90
2019-04-24T00:39:13.690Z,99.90
2019-04-24T00:41:27.811Z,99.90
2019-04-24T00:46:42.411Z,99.90
2019-04-24T00:49:20.474Z,99.90
2019-04-24T00:59:38.027Z,99.90
2019-04-24T01:11:13.562Z,99.90
2019-04-24T01:14:09.898Z,99.90
2019-04-24T01:19:01.405Z,99.90
2019-04-24T01:21:32.089Z,99.90
2019-04-24T01:24:09.159Z,99.90
2019-04-24T01:29:10.698Z,99.90
2019-04-24T01:31:51.340Z,99.90
2019-04-24T01:34:43.268Z,99.90
2019-04-24T01:42:59.560Z,99.90
2019-04-24T01:45:24.923Z,99.90
2019-04-24T01:47:51.428Z,99.90
2019-04-24T01:50:16.786Z,99.90
2019-04-24T02:00:40.030Z,99.90
2019-04-24T02:03:06.396Z,99.90
2019-04-24T02:05:35.533Z,99.90
2019-04-24T02:08:40.525Z,99.90
2019-04-24T02:14:20.018Z,99.90
2019-04-24T02:19:10.243Z,99.90
2019-04-24T02:24:23.873Z,99.90
2019-04-24T02:26:45.713Z,99.90
2019-04-24T02:29:25.908Z,99.90
2019-04-24T02:32:15.834Z,99.90
2019-04-24T02:34:50.598Z,99.90
2019-04-24T02:40:25.908Z,99.90
2019-04-24T02:45:13.775Z,99.90
2019-04-24T02:52:53.186Z,99.90
2019-04-24T02:55:13.467Z,99.90
2019-04-24T03:00:33.964Z,99.90
2019-04-24T03:03:17.211Z,99.90
2019-04-24T03:05:48.940Z,99.90
2019-04-24T03:10:55.465Z,99.90
2019-04-24T03:13:36.980Z,99.90
2019-04-24T03:16:51.998Z,99.90
2019-04-24T03:19:35.294Z,99.90
2019-04-24T03:21:51.608Z,99.90
2019-04-24T03:24:26.401Z,99.90
2019-04-24T03:29:26.430Z,99.90
2019-04-24T03:32:19.128Z,99.90
2019-04-24T03:34:51.081Z,99.90
2019-04-24T03:40:08.441Z,99.90
2019-04-24T03:43:08.213Z,99.90
2019-04-24T03:47:32.581Z,99.90
2019-04-24T03:52:25.945Z,99.90
2019-04-24T03:55:35.994Z,99.90
2019-04-24T03:58:11.016Z,99.90
2019-04-24T04:03:31.311Z,99.90
2019-04-24T04:05:50.128Z,99.90
2019-04-24T04:11:11.230Z,99.90
2019-04-24T04:13:41.741Z,99.90
2019-04-24T04:16:29.975Z,99.90
2019-04-24T04:18:53.440Z,99.90
2019-04-24T04:21:30.565Z,99.90
2019-04-24T04:37:46.579Z,99.90
2019-04-24T04:40:23.267Z,99.90
2019-04-24T04:45:21.511Z,99.90
2019-04-24T04:48:18.730Z,99.90
2019-04-24T04:51:00.508Z,99.90
2019-04-24T04:56:29.063Z,99.90
2019-04-24T04:58:53.265Z,99.90
2019-04-24T05:02:44.803Z,99.90
2019-04-24T05:14:42.820Z,99.90
2019-04-24T05:24:32.886Z,99.90
2019-04-24T05:29:59.355Z,99.90
2019-04-24T05:33:05.043Z,99.90
2019-04-24T05:38:37.595Z,99.90
2019-04-24T05:43:35.125Z,99.90
2019-04-24T05:51:42.646Z,99.90
2019-04-24T05:57:44.151Z,99.90
2019-04-24T05:59:55.348Z,99.90
2019-04-24T06:05:05.504Z,99.90
2019-04-24T06:10:37.454Z,99.90
2019-04-24T06:13:35.854Z,99.90
2019-04-24T06:18:48.074Z,99.90
2019-04-24T06:26:25.053Z,99.90
2019-04-24T06:32:10.026Z,99.20
2019-04-24T06:40:21.018Z,99.90
2019-04-24T06:48:08.749Z,99.90
2019-04-24T06:50:57.216Z,99.90
2019-04-24T06:53:16.936Z,99.90
2019-04-24T06:58:27.036Z,99.90
2019-04-24T07:06:49.394Z,99.90
2019-04-24T07:09:45.747Z,99.90
2019-04-24T07:12:33.351Z,99.90
2019-04-24T07:15:12.662Z,99.90
2019-04-24T07:17:56.836Z,99.90
2019-04-24T07:20:33.097Z,99.90
2019-04-24T07:22:59.783Z,99.90
2019-04-24T07:28:35.740Z,99.90
2019-04-24T07:34:22.890Z,99.90
2019-04-24T07:36:46.222Z,99.90
2019-04-24T07:44:37.126Z,99.90
2019-04-24T07:49:46.523Z,99.70
2019-04-24T07:57:29.276Z,99.20
2019-04-24T08:00:16.095Z,99.10
2019-04-24T08:05:18.139Z,99.00
2019-04-24T08:10:42.252Z,98.80
2019-04-24T08:15:53.372Z,98.20
2019-04-24T08:18:26.804Z,98.00
2019-04-24T08:20:54.290Z,97.80
2019-04-24T08:23:40.720Z,97.40
2019-04-24T08:26:00.906Z,97.20
2019-04-24T08:31:44.496Z,96.60
2019-04-24T08:36:44.782Z,96.00
2019-04-24T08:45:13.866Z,95.50
2019-04-24T09:00:45.190Z,93.90
2019-04-24T09:06:24.108Z,93.70
2019-04-24T09:09:21.428Z,94.30
2019-04-24T09:12:23.801Z,93.70
2019-04-24T09:17:30.900Z,93.40
2019-04-24T09:20:01.923Z,94.10
2019-04-24T09:25:18.125Z,93.30
2019-04-24T09:28:00.058Z,93.10
2019-04-24T09:30:38.754Z,92.70
2019-04-24T09:46:38.380Z,91.20
2019-04-24T09:51:44.041Z,91.90
2019-04-24T09:54:56.485Z,92.70
2019-04-24T09:59:45.590Z,94.20
2019-04-24T10:02:31.875Z,95.00
2019-04-24T10:05:15.209Z,95.30
2019-04-24T10:07:50.865Z,95.80
2019-04-24T10:13:12.848Z,96.30
2019-04-24T10:15:44.897Z,97.50
2019-04-24T10:18:40.217Z,98.00
2019-04-24T10:20:44.861Z,98.40
2019-04-24T10:23:50.342Z,98.20
2019-04-24T10:26:13.581Z,99.20
2019-04-24T10:35:00.606Z,98.30
2019-04-24T10:40:47.524Z,96.60
2019-04-24T10:43:30.902Z,96.90
2019-04-24T10:46:21.231Z,97.00
2019-04-24T10:49:28.610Z,97.50
2019-04-24T10:52:05.331Z,97.60
2019-04-24T10:54:40.646Z,96.10
2019-04-24T10:57:04.499Z,95.90
2019-04-24T10:59:49.570Z,95.10
2019-04-24T11:05:19.229Z,93.70
2019-04-24T11:17:00.194Z,92.70
2019-04-24T11:19:22.199Z,93.10
2019-04-24T11:24:26.009Z,92.90
2019-04-24T11:27:06.834Z,92.90
2019-04-24T11:29:57.776Z,92.50
2019-04-24T11:37:52.030Z,91.70
2019-04-24T11:40:56.964Z,90.80
2019-04-24T11:43:25.811Z,90.60
2019-04-24T11:46:49.980Z,90.60
2019-04-24T11:52:01.993Z,90.70
2019-04-24T11:54:22.563Z,91.20
2019-04-24T11:59:30.037Z,90.40
2019-04-24T12:02:24.500Z,90.10
2019-04-24T12:05:24.887Z,89.50
2019-04-24T12:10:29.483Z,91.20
2019-04-24T12:13:20.422Z,91.70
2019-04-24T12:21:30.378Z,92.20
2019-04-24T12:24:05.404Z,92.00
2019-04-24T12:26:31.172Z,92.70
2019-04-24T12:32:06.805Z,93.30
2019-04-24T12:37:16.286Z,93.60
2019-04-24T12:40:11.901Z,93.70
2019-04-24T12:42:42.228Z,93.90
2019-04-24T12:45:10.567Z,93.60
2019-04-24T12:47:46.728Z,93.70
2019-04-24T12:50:13.398Z,94.10
2019-04-24T12:52:54.799Z,93.80
2019-04-24T12:55:55.705Z,94.10
2019-04-24T12:58:52.341Z,95.20
2019-04-24T13:04:33.958Z,96.00
2019-04-24T13:06:57.598Z,95.30
2019-04-24T13:09:43.259Z,95.70
2019-04-24T13:12:41.119Z,95.20
2019-04-24T13:15:18.145Z,95.10
2019-04-24T13:18:03.318Z,95.10
2019-04-24T13:19:54.751Z,95.00
2019-04-24T13:22:36.220Z,94.70
2019-04-24T13:25:31.930Z,94.20
2019-04-24T13:28:44.734Z,94.60
2019-04-24T13:31:23.593Z,94.20
2019-04-24T13:33:57.890Z,94.10
2019-04-24T13:36:53.577Z,94.70
2019-04-24T13:38:58.181Z,94.70
2019-04-24T13:41:45.579Z,94.30
2019-04-24T13:44:18.007Z,93.50
2019-04-24T13:46:36.285Z,93.10
2019-04-24T13:49:13.518Z,93.50
2019-04-24T13:51:55.477Z,93.70
2019-04-24T13:54:30.034Z,93.60
2019-04-24T13:59:23.051Z,91.80
2019-04-24T14:01:56.336Z,90.90
2019-04-24T14:04:26.703Z,90.60
2019-04-24T14:07:11.867Z,88.90
2019-04-24T14:10:00.230Z,89.10
2019-04-24T14:15:03.123Z,90.50
2019-04-24T14:17:18.927Z,90.70
2019-04-24T14:23:05.696Z,90.80
2019-04-24T14:28:19.843Z,89.20
2019-04-24T14:30:43.319Z,89.50
2019-04-24T14:33:13.493Z,88.30
2019-04-24T14:35:54.497Z,88.10
2019-04-24T14:38:20.732Z,86.50
2019-04-24T14:43:37.022Z,84.90
2019-04-24T14:46:16.547Z,87.20
2019-04-24T14:48:36.635Z,89.30
2019-04-24T14:51:10.014Z,90.10
2019-04-24T14:53:49.394Z,90.10
2019-04-24T14:56:13.357Z,89.80
2019-04-24T14:58:58.704Z,90.10
2019-04-24T15:01:25.310Z,88.80
2019-04-24T15:03:53.631Z,85.60
2019-04-24T15:09:10.961Z,89.80
2019-04-24T15:11:51.794Z,90.40
2019-04-24T15:14:20.085Z,90.60
2019-04-24T15:17:00.212Z,92.40
2019-04-24T15:19:35.100Z,91.50
2019-04-24T15:22:13.564Z,92.70
2019-04-24T15:29:41.900Z,92.20
2019-04-24T15:32:18.736Z,92.80
2019-04-24T15:35:03.026Z,93.70
2019-04-24T15:40:21.575Z,94.60
2019-04-24T15:42:23.375Z,94.80
2019-04-24T15:45:02.078Z,94.70
2019-04-24T15:47:47.940Z,94.70
2019-04-24T15:50:14.691Z,94.30
2019-04-24T15:52:09.316Z,94.10
2019-04-24T15:54:41.812Z,93.40
2019-04-24T15:57:13.331Z,92.20
2019-04-24T16:00:06.721Z,91.70
2019-04-24T16:03:01.842Z,92.20
2019-04-24T16:04:55.264Z,92.60
2019-04-24T16:07:48.008Z,91.60
2019-04-24T16:10:25.872Z,91.30
2019-04-24T16:12:57.474Z,92.30
2019-04-24T16:18:58.202Z,92.70
2019-04-24T16:21:15.633Z,93.60
2019-04-24T16:24:20.632Z,94.40
2019-04-24T16:26:16.629Z,95.30
2019-04-24T16:28:52.929Z,96.20
2019-04-24T16:31:29.964Z,96.90
2019-04-24T16:39:04.931Z,97.90
2019-04-24T16:41:53.639Z,98.20
2019-04-24T16:44:23.402Z,98.70
2019-04-24T16:47:10.332Z,99.00
2019-04-24T16:52:14.320Z,99.50
2019-04-24T16:57:03.351Z,99.00
2019-04-24T16:59:39.322Z,98.40
2019-04-24T17:02:04.435Z,98.60
2019-04-24T17:04:55.279Z,98.70
2019-04-24T17:07:18.171Z,98.70
2019-04-24T17:12:32.830Z,99.10
2019-04-24T17:15:12.294Z,99.40
2019-04-24T17:18:12.037Z,99.10
2019-04-24T17:21:12.004Z,99.30
2019-04-24T17:23:17.779Z,99.60
2019-04-24T17:28:33.376Z,99.90
2019-04-24T17:31:09.418Z,99.90
2019-04-24T17:33:34.704Z,99.90
2019-04-24T17:36:11.419Z,99.90
2019-04-24T17:38:25.596Z,99.90
2019-04-24T17:40:57.865Z,99.90
2019-04-24T17:44:03.926Z,99.90
2019-04-24T17:46:23.212Z,99.90
2019-04-24T17:49:09.241Z,99.90
2019-04-24T17:51:36.625Z,99.90
2019-04-24T17:54:09.603Z,99.90
2019-04-24T17:56:49.330Z,99.90
2019-04-24T17:58:47.405Z,99.90
2019-04-24T18:01:19.088Z,99.90
2019-04-24T18:03:53.435Z,99.90
2019-04-24T18:06:23.896Z,99.90
2019-04-24T18:08:56.405Z,99.90
2019-04-24T18:11:27.959Z,99.90
2019-04-24T18:13:59.505Z,99.90
2019-04-24T18:16:32.394Z,99.90
2019-04-24T18:19:04.598Z,99.90
2019-04-24T18:21:36.111Z,99.90
2019-04-24T18:24:09.225Z,99.90
2019-04-24T18:26:54.460Z,99.90
2019-04-24T18:29:25.977Z,99.90
2019-04-24T18:31:57.517Z,99.90
2019-04-24T18:34:29.282Z,99.90
2019-04-24T18:37:02.035Z,99.90
2019-04-24T18:39:33.800Z,99.90
2019-04-24T18:42:05.069Z,99.90
2019-04-24T18:44:36.276Z,99.90
2019-04-24T18:47:08.643Z,99.90
2019-04-24T18:49:41.388Z,99.90
2019-04-24T18:52:13.687Z,99.90
2019-04-24T18:54:44.700Z,99.90
2019-04-24T18:57:16.562Z,99.90
2019-04-24T18:59:48.076Z,99.90
2019-04-24T19:02:20.026Z,99.90
2019-04-24T19:04:51.804Z,99.90
2019-04-24T19:07:24.024Z,99.90
2019-04-24T19:09:56.200Z,99.90
2019-04-24T19:12:27.622Z,99.90
2019-04-24T19:15:00.275Z,99.90
2019-04-24T19:17:31.791Z,99.90
2019-04-24T19:20:03.397Z,99.90
2019-04-24T19:22:34.898Z,99.90
2019-04-24T19:25:06.208Z,99.90
2019-04-24T19:27:48.585Z,99.90
2019-04-24T19:30:22.223Z,99.90
2019-04-24T19:32:54.181Z,99.90
2019-04-24T19:38:07.195Z,99.90
2019-04-24T19:40:40.225Z,99.90
2019-04-24T19:43:13.236Z,99.90
2019-04-24T19:45:44.805Z,99.90
2019-04-24T19:48:17.615Z,99.90
2019-04-24T19:50:49.091Z,99.90
2019-04-24T19:53:24.602Z,99.90
2019-04-24T19:55:53.732Z,99.90
2019-04-24T19:58:25.201Z,99.90
2019-04-24T20:00:56.362Z,99.90
2019-04-24T20:03:27.841Z,99.90
2019-04-24T20:05:59.202Z,99.90
2019-04-24T20:08:31.887Z,99.90
2019-04-24T20:11:14.142Z,99.90
2019-04-24T20:13:44.477Z,99.90
2019-04-24T20:16:16.612Z,99.90
2019-04-24T20:18:48.209Z,99.90
2019-04-24T20:21:21.571Z,99.90
2019-04-24T20:23:54.297Z,99.90
2019-04-24T20:26:25.840Z,99.90
2019-04-24T20:28:57.136Z,99.90
2019-04-24T20:31:28.529Z,99.90
2019-04-24T20:34:01.357Z,99.90
2019-04-24T20:36:33.643Z,99.90
2019-04-24T20:39:06.980Z,99.90
2019-04-24T20:41:41.570Z,99.90
2019-04-24T20:44:13.225Z,99.90
2019-04-24T20:46:44.413Z,99.90
2019-04-24T20:49:16.542Z,99.90
2019-04-24T20:51:49.254Z,99.90
2019-04-24T20:54:22.215Z,99.90
2019-04-24T20:57:00.617Z,99.90
2019-04-24T20:59:26.076Z,99.90
2019-04-24T21:01:57.160Z,99.90
2019-04-24T21:04:28.463Z,99.90
2019-04-24T21:07:15.438Z,99.90
2019-04-24T21:09:52.544Z,99.90
2019-04-24T21:12:24.266Z,99.90
2019-04-24T21:15:18.933Z,99.90
2019-04-24T21:17:49.917Z,99.90
2019-04-24T21:20:22.937Z,99.90
2019-04-24T21:22:54.469Z,99.90
2019-04-24T21:25:26.441Z,99.90
2019-04-24T21:27:58.079Z,99.90
2019-04-24T21:30:29.511Z,99.90
2019-04-24T21:33:01.763Z,99.90
2019-04-24T21:35:33.779Z,99.90
2019-04-24T21:38:05.372Z,99.90
2019-04-24T21:40:36.664Z,99.90
2019-04-24T21:43:07.847Z,99.90
2019-04-24T21:45:39.309Z,99.90
2019-04-24T21:48:12.167Z,99.90
2019-04-24T21:50:43.466Z,99.90
2019-04-24T21:53:15.072Z,99.90
2019-04-24T21:55:47.273Z,99.90
2019-04-24T21:58:18.836Z,99.90
2019-04-24T22:01:14.653Z,99.90
2019-04-24T22:04:04.516Z,99.90
2019-04-24T22:06:51.781Z,99.90
2019-04-24T22:09:26.006Z,99.90
2019-04-24T22:11:57.630Z,99.90
2019-04-24T22:14:29.074Z,99.90
2019-04-24T22:17:00.495Z,99.90
2019-04-24T22:19:31.982Z,99.90
2019-04-24T22:22:11.664Z,99.90
2019-04-24T22:25:07.700Z,99.90
2019-04-24T22:27:41.197Z,99.90
2019-04-24T22:30:45.267Z,99.90
2019-04-24T22:33:16.619Z,99.90
2019-04-24T22:35:47.716Z,99.90
2019-04-24T22:38:21.265Z,99.90
2019-04-24T22:40:57.239Z,99.90
2019-04-24T22:43:29.854Z,99.90
2019-04-24T22:46:01.546Z,99.90
2019-04-24T22:48:33.756Z,99.90
2019-04-24T22:51:06.241Z,99.90
2019-04-24T22:53:37.506Z,99.90
2019-04-24T22:56:08.838Z,99.90
2019-04-24T22:58:40.268Z,99.90
2019-04-24T23:01:12.310Z,99.90
2019-04-24T23:03:43.587Z,99.90
2019-04-24T23:06:14.810Z,99.90
2019-04-24T23:08:46.246Z,99.90
2019-04-24T23:11:22.083Z,99.90
2019-04-24T23:13:53.383Z,99.90
2019-04-24T23:16:24.531Z,99.90
2019-04-24T23:18:55.396Z,99.90
2019-04-24T23:21:45.523Z,99.90
2019-04-24T23:24:48.459Z,99.90
2019-04-24T23:27:34.354Z,99.90
2019-04-24T23:30:31.601Z,99.90
2019-04-24T23:33:12.068Z,99.90
2019-04-24T23:35:43.641Z,99.90
2019-04-24T23:38:15.113Z,99.90
2019-04-24T23:40:46.717Z,99.90
2019-04-24T23:43:18.150Z,99.90
2019-04-24T23:45:49.075Z,99.90
2019-04-24T23:48:21.208Z,99.90
2019-04-24T23:50:52.357Z,99.90
2019-04-24T23:53:24.319Z,99.90
2019-04-24T23:55:55.546Z,99.90
2019-04-24T23:58:26.818Z,99.90
